createdAt,value
2023-03-21T00:00:26.804Z,26.34
2023-03-21T00:03:36.798Z,25.48
2023-03-21T00:06:42.940Z,24.57
2023-03-21T00:09:53.663Z,25.66
2023-03-21T00:13:13.460Z,26.90
2023-03-21T00:16:26.274Z,28.83
2023-03-21T00:19:38.752Z,29.34
2023-03-21T00:22:46.303Z,30.37
2023-03-21T00:25:55.618Z,35.11
2023-03-21T00:29:19.852Z,41.41
2023-03-21T00:32:26.141Z,46.45
2023-03-21T00:35:57.835Z,51.68
2023-03-21T00:39:08.149Z,44.87
2023-03-21T00:42:20.017Z,37.22
2023-03-21T00:45:26.006Z,43.03
2023-03-21T00:48:33.836Z,45.50
2023-03-21T00:51:39.853Z,41.40
2023-03-21T00:54:50.670Z,43.18
2023-03-21T00:58:02.164Z,44.52
2023-03-21T01:01:10.266Z,44.35
2023-03-21T01:04:21.378Z,51.29
2023-03-21T01:07:28.238Z,53.74
2023-03-21T01:10:34.112Z,52.45
2023-03-21T01:13:53.757Z,53.78
2023-03-21T01:17:05.109Z,48.62
2023-03-21T01:20:15.483Z,48.48
2023-03-21T01:23:21.524Z,40.79
2023-03-21T01:26:28.451Z,37.56
2023-03-21T01:29:36.871Z,33.67
2023-03-21T01:32:48.948Z,32.81
2023-03-21T01:36:03.260Z,34.44
2023-03-21T01:39:18.844Z,32.46
2023-03-21T01:42:27.871Z,32.34
2023-03-21T01:46:37.258Z,32.61
2023-03-21T01:50:13.133Z,35.56
2023-03-21T01:53:38.493Z,41.24
2023-03-21T01:56:49.990Z,37.37
2023-03-21T01:59:58.128Z,34.02
2023-03-21T02:03:38.753Z,33.42
2023-03-21T02:07:17.002Z,31.09
2023-03-21T02:10:35.817Z,30.54
2023-03-21T02:13:43.703Z,29.14
2023-03-21T02:17:17.904Z,30.11
2023-03-21T02:20:59.771Z,32.75
2023-03-21T02:25:22.204Z,35.79
2023-03-21T02:28:49.454Z,34.59
2023-03-21T02:32:25.310Z,31.89
2023-03-21T02:36:15.709Z,30.38
2023-03-21T02:39:40.575Z,28.26
2023-03-21T02:43:11.598Z,28.36
2023-03-21T02:46:42.965Z,27.78
2023-03-21T02:50:20.207Z,28.39
2023-03-21T02:53:35.016Z,28.48
2023-03-21T02:56:47.728Z,28.37
2023-03-21T03:00:02.363Z,28.79
2023-03-21T03:03:35.282Z,34.27
2023-03-21T03:07:18.073Z,34.48
2023-03-21T03:10:47.001Z,35.68
2023-03-21T03:14:53.067Z,34.95
2023-03-21T03:18:01.999Z,34.78
2023-03-21T03:21:26.274Z,34.40
2023-03-21T03:24:45.313Z,33.56
2023-03-21T03:27:59.137Z,32.45
2023-03-21T03:31:12.865Z,32.69
2023-03-21T03:34:39.727Z,34.03
2023-03-21T03:37:54.545Z,35.97
2023-03-21T03:41:14.911Z,37.46
2023-03-21T03:44:30.207Z,35.39
2023-03-21T03:47:57.253Z,33.99
2023-03-21T03:51:16.460Z,34.33
2023-03-21T03:54:51.217Z,34.79
2023-03-21T03:57:59.001Z,35.34
2023-03-21T04:01:05.729Z,36.32
2023-03-21T04:04:17.184Z,36.85
2023-03-21T04:07:25.412Z,35.87
2023-03-21T04:10:33.668Z,37.09
2023-03-21T04:13:43.615Z,36.30
2023-03-21T04:16:52.555Z,35.67
2023-03-21T04:20:11.624Z,34.34
2023-03-21T04:23:19.809Z,34.07
2023-03-21T04:26:33.797Z,35.59
2023-03-21T04:29:59.729Z,33.54
2023-03-21T04:33:37.236Z,31.40
2023-03-21T04:37:13.799Z,31.12
2023-03-21T04:40:21.893Z,31.53
2023-03-21T04:43:35.243Z,33.36
2023-03-21T04:46:45.081Z,33.98
2023-03-21T04:49:54.748Z,37.28
2023-03-21T04:53:04.128Z,37.22
2023-03-21T04:56:11.231Z,37.91
2023-03-21T04:59:26.252Z,38.00
2023-03-21T05:02:32.226Z,36.71
2023-03-21T05:05:40.815Z,31.42
2023-03-21T05:08:49.240Z,29.55
2023-03-21T05:11:56.899Z,28.40
2023-03-21T05:15:02.898Z,28.04
2023-03-21T05:18:13.873Z,26.86
2023-03-21T05:21:41.875Z,27.40
2023-03-21T05:24:58.813Z,26.31
2023-03-21T05:28:32.060Z,25.07
2023-03-21T05:31:43.397Z,29.83
2023-03-21T05:34:53.214Z,34.54
2023-03-21T05:38:02.521Z,37.96
2023-03-21T05:41:18.171Z,37.92
2023-03-21T05:44:26.372Z,34.75
2023-03-21T05:47:32.892Z,32.31
2023-03-21T05:50:42.589Z,29.94
2023-03-21T05:53:54.638Z,30.20
2023-03-21T05:57:04.273Z,28.02
2023-03-21T06:00:30.971Z,29.12
2023-03-21T06:03:57.901Z,33.05
2023-03-21T06:07:07.007Z,36.21
2023-03-21T06:10:15.666Z,38.65
2023-03-21T06:13:28.192Z,41.28
2023-03-21T06:16:35.074Z,41.08
2023-03-21T06:19:41.459Z,36.19
2023-03-21T06:22:54.478Z,31.96
2023-03-21T06:26:12.394Z,33.17
2023-03-21T06:29:22.285Z,30.08
2023-03-21T06:32:29.983Z,27.95
2023-03-21T06:35:45.227Z,26.11
2023-03-21T06:38:51.290Z,27.85
2023-03-21T06:41:58.602Z,28.60
2023-03-21T06:45:15.103Z,27.88
2023-03-21T06:48:26.125Z,19.54
2023-03-21T06:51:32.131Z,18.65
2023-03-21T06:54:51.948Z,18.81
2023-03-21T06:58:00.832Z,19.04
2023-03-21T07:01:11.365Z,19.19
2023-03-21T07:04:29.909Z,21.02
2023-03-21T07:07:38.002Z,22.49
2023-03-21T07:10:45.477Z,22.44
2023-03-21T07:13:54.249Z,21.98
2023-03-21T07:17:09.265Z,23.04
2023-03-21T07:20:38.236Z,23.44
2023-03-21T07:23:44.322Z,23.61
2023-03-21T07:26:51.236Z,26.46
2023-03-21T07:29:57.015Z,34.31
2023-03-21T07:33:07.335Z,28.69
2023-03-21T07:36:17.358Z,29.65
2023-03-21T07:39:24.964Z,36.55
2023-03-21T07:42:35.326Z,33.83
2023-03-21T07:45:42.875Z,36.23
2023-03-21T07:48:51.424Z,39.74
2023-03-21T07:51:58.087Z,50.88
2023-03-21T07:55:04.039Z,40.85
2023-03-21T07:58:10.898Z,39.95
2023-03-21T08:01:16.932Z,45.14
2023-03-21T08:04:29.316Z,57.21
2023-03-21T08:07:35.457Z,46.27
2023-03-21T08:10:42.578Z,38.41
2023-03-21T08:13:48.591Z,36.39
2023-03-21T08:16:55.798Z,38.23
2023-03-21T08:20:04.960Z,37.14
2023-03-21T08:23:11.712Z,34.09
2023-03-21T08:26:18.672Z,33.94
2023-03-21T08:29:25.894Z,34.76
2023-03-21T08:32:33.148Z,34.45
2023-03-21T08:35:43.367Z,35.01
2023-03-21T08:38:49.368Z,35.49
2023-03-21T08:41:56.363Z,34.47
2023-03-21T08:45:02.225Z,35.21
2023-03-21T08:48:09.283Z,35.06
2023-03-21T08:51:20.094Z,33.51
2023-03-21T08:54:27.398Z,33.10
2023-03-21T08:57:33.671Z,38.21
2023-03-21T09:00:40.486Z,38.82
2023-03-21T09:03:56.084Z,46.49
2023-03-21T09:07:06.196Z,48.80
2023-03-21T09:10:21.812Z,47.24
2023-03-21T09:13:28.945Z,42.02
2023-03-21T09:16:35.290Z,47.65
2023-03-21T09:19:42.766Z,41.49
2023-03-21T09:22:54.074Z,44.61
2023-03-21T09:26:00.946Z,40.67
2023-03-21T09:29:07.774Z,39.43
2023-03-21T09:32:15.029Z,42.17
2023-03-21T09:35:29.323Z,35.57
2023-03-21T09:38:48.216Z,34.10
2023-03-21T09:42:22.204Z,36.22
2023-03-21T09:45:43.595Z,51.06
2023-03-21T09:49:00.366Z,49.96
2023-03-21T09:52:22.622Z,53.22
2023-03-21T09:55:38.828Z,54.20
2023-03-21T09:58:53.275Z,45.01
2023-03-21T10:02:04.262Z,40.68
2023-03-21T10:05:23.006Z,49.75
2023-03-21T10:08:37.654Z,42.74
2023-03-21T10:11:53.486Z,43.46
2023-03-21T10:15:05.605Z,52.42
2023-03-21T10:18:24.198Z,56.05
2023-03-21T10:21:58.533Z,54.13
2023-03-21T10:24:59.131Z,50.80
2023-03-21T10:28:18.352Z,39.73
2023-03-21T10:31:30.093Z,42.10
2023-03-21T10:34:46.194Z,46.35
2023-03-21T10:37:53.048Z,42.18
2023-03-21T10:40:59.033Z,43.87
2023-03-21T10:44:14.957Z,41.19
2023-03-21T10:47:25.462Z,40.01
2023-03-21T10:50:33.967Z,45.83
2023-03-21T10:53:48.410Z,47.98
2023-03-21T10:57:14.703Z,58.60
2023-03-21T11:00:32.600Z,43.86
2023-03-21T11:03:44.920Z,53.72
2023-03-21T11:06:58.310Z,54.39
2023-03-21T11:10:20.044Z,44.68
2023-03-21T11:13:41.485Z,49.66
2023-03-21T11:16:50.965Z,55.61
2023-03-21T11:20:05.055Z,54.39
2023-03-21T11:23:18.700Z,56.94
2023-03-21T11:26:37.707Z,48.97
2023-03-21T11:29:52.392Z,48.31
2023-03-21T11:33:06.431Z,40.49
2023-03-21T11:36:39.183Z,39.32
2023-03-21T11:39:48.891Z,44.48
2023-03-21T11:42:58.599Z,40.15
2023-03-21T11:46:11.797Z,35.83
2023-03-21T11:49:21.138Z,34.63
2023-03-21T11:52:41.590Z,36.86
2023-03-21T11:56:10.003Z,38.79
2023-03-21T11:59:42.152Z,39.91
2023-03-21T12:03:46.836Z,35.83
2023-03-21T12:07:05.796Z,40.55
2023-03-21T12:10:35.203Z,42.81
2023-03-21T12:14:07.426Z,38.05
2023-03-21T12:17:35.304Z,35.58
2023-03-21T12:20:52.548Z,44.82
2023-03-21T12:24:17.199Z,49.70
2023-03-21T12:27:42.345Z,38.00
2023-03-21T12:31:11.160Z,35.62
2023-03-21T12:34:49.146Z,37.64
2023-03-21T12:38:14.023Z,39.98
2023-03-21T12:41:31.450Z,35.20
2023-03-21T12:44:45.527Z,39.33
2023-03-21T12:47:59.094Z,39.02
2023-03-21T12:51:15.879Z,47.95
2023-03-21T12:54:35.179Z,43.08
2023-03-21T12:57:57.493Z,41.75
2023-03-21T13:01:15.933Z,40.27
2023-03-21T13:04:50.344Z,36.83
2023-03-21T13:08:08.082Z,39.13
2023-03-21T13:11:24.365Z,35.71
2023-03-21T13:14:46.425Z,36.51
2023-03-21T13:18:05.381Z,39.94
2023-03-21T13:21:22.527Z,39.74
2023-03-21T13:24:40.910Z,32.74
2023-03-21T13:28:07.416Z,32.70
2023-03-21T13:31:41.917Z,31.56
2023-03-21T13:35:04.989Z,31.67
2023-03-21T13:38:22.976Z,31.17
2023-03-21T13:41:36.150Z,31.54
2023-03-21T13:44:51.776Z,30.66
2023-03-21T13:48:04.013Z,38.29
2023-03-21T13:51:12.339Z,35.81
2023-03-21T13:54:29.768Z,37.96
2023-03-21T13:57:49.911Z,37.03
2023-03-21T14:01:26.322Z,34.60
2023-03-21T14:04:48.157Z,30.65
2023-03-21T14:08:15.464Z,31.04
2023-03-21T14:11:26.840Z,33.80
2023-03-21T14:14:42.422Z,32.30
2023-03-21T14:17:58.844Z,34.68
2023-03-21T14:21:09.419Z,29.54
2023-03-21T14:24:21.580Z,29.00
2023-03-21T14:27:34.689Z,29.20
2023-03-21T14:30:45.774Z,30.70
2023-03-21T14:33:56.945Z,28.24
2023-03-21T14:37:20.590Z,27.86
2023-03-21T14:40:32.928Z,28.67
2023-03-21T14:43:39.674Z,27.53
2023-03-21T14:46:46.761Z,25.96
2023-03-21T14:49:55.525Z,27.10
2023-03-21T14:53:04.520Z,31.21
2023-03-21T14:56:24.265Z,32.01
2023-03-21T14:59:39.006Z,27.03
2023-03-21T15:03:03.354Z,27.09
2023-03-21T15:06:17.896Z,31.87
2023-03-21T15:09:32.624Z,29.57
2023-03-21T15:12:55.102Z,28.69
2023-03-21T15:16:03.705Z,30.43
2023-03-21T15:19:18.961Z,31.06
2023-03-21T15:22:40.512Z,33.35
2023-03-21T15:25:49.632Z,33.67
2023-03-21T15:29:02.601Z,31.99
2023-03-21T15:32:16.871Z,27.68
2023-03-21T15:35:31.473Z,31.65
2023-03-21T15:38:46.180Z,29.63
2023-03-21T15:42:25.619Z,32.16
2023-03-21T15:45:32.453Z,34.03
2023-03-21T15:48:39.139Z,34.85
2023-03-21T15:51:50.457Z,31.01
2023-03-21T15:54:59.583Z,32.35
2023-03-21T15:58:19.247Z,32.47
2023-03-21T16:01:27.440Z,38.18
2023-03-21T16:04:34.326Z,37.27
2023-03-21T16:07:49.777Z,38.13
2023-03-21T16:10:55.788Z,59.81
2023-03-21T16:14:07.837Z,93.59
2023-03-21T16:17:42.968Z,36.46
2023-03-21T16:20:51.023Z,62.96
2023-03-21T16:24:02.877Z,34.83
2023-03-21T16:27:09.709Z,43.34
2023-03-21T16:30:22.029Z,50.52
2023-03-21T16:33:28.972Z,37.13
2023-03-21T16:36:37.998Z,44.40
2023-03-21T16:39:50.441Z,60.82
2023-03-21T16:42:56.681Z,47.73
2023-03-21T16:46:08.289Z,32.64
2023-03-21T16:49:26.943Z,37.35
2023-03-21T16:52:33.599Z,55.76
2023-03-21T16:55:41.321Z,84.12
2023-03-21T16:58:48.701Z,79.27
2023-03-21T17:01:57.267Z,94.78
2023-03-21T17:05:10.520Z,65.81
2023-03-21T17:08:22.051Z,62.65
2023-03-21T17:11:36.366Z,68.09
2023-03-21T17:14:42.633Z,76.70
2023-03-21T17:17:55.867Z,72.54
2023-03-21T17:21:01.824Z,83.79
2023-03-21T17:24:17.166Z,72.99
2023-03-21T17:27:23.023Z,72.83
2023-03-21T17:30:33.857Z,70.63
2023-03-21T17:33:42.510Z,54.77
2023-03-21T17:36:51.818Z,54.35
2023-03-21T17:39:57.960Z,59.78
2023-03-21T17:43:04.787Z,69.13
2023-03-21T17:46:15.936Z,72.10
2023-03-21T17:49:25.316Z,80.48
2023-03-21T17:52:31.168Z,90.50
2023-03-21T17:55:40.084Z,99.97
2023-03-21T17:58:47.392Z,103.95
2023-03-21T18:01:54.108Z,94.77
2023-03-21T18:05:02.701Z,77.06
2023-03-21T18:08:12.706Z,67.43
2023-03-21T18:11:24.276Z,63.34
2023-03-21T18:14:31.039Z,67.48
2023-03-21T18:17:37.132Z,75.82
2023-03-21T18:20:52.545Z,77.63
2023-03-21T18:23:59.936Z,86.68
2023-03-21T18:27:12.473Z,86.93
2023-03-21T18:30:41.433Z,96.30
2023-03-21T18:33:53.113Z,94.32
2023-03-21T18:37:07.954Z,92.59
2023-03-21T18:40:26.544Z,101.60
2023-03-21T18:47:10.944Z,108.31
2023-03-21T18:50:17.152Z,109.16
2023-03-21T18:53:26.521Z,122.95
2023-03-21T19:00:06.542Z,141.84
2023-03-21T19:03:36.698Z,125.79
2023-03-21T19:06:44.168Z,116.30
2023-03-21T19:10:15.361Z,112.54
2023-03-21T19:13:19.439Z,109.24
2023-03-21T19:16:30.027Z,109.36
2023-03-21T19:19:39.634Z,111.30
2023-03-21T19:22:46.433Z,101.85
2023-03-21T19:25:55.730Z,95.67
2023-03-21T19:29:01.693Z,129.80
2023-03-21T19:32:09.423Z,102.04
2023-03-21T19:35:22.288Z,83.13
2023-03-21T19:38:29.301Z,84.34
2023-03-21T19:41:38.395Z,88.63
2023-03-21T19:44:52.172Z,88.21
2023-03-21T19:47:58.038Z,83.42
2023-03-21T19:51:29.152Z,85.43
2023-03-21T19:54:42.997Z,90.25
2023-03-21T19:57:57.316Z,93.28
2023-03-21T20:01:03.306Z,108.07
2023-03-21T20:04:10.143Z,111.55
2023-03-21T20:07:16.114Z,115.84
2023-03-21T20:10:27.486Z,116.71
2023-03-21T20:13:36.566Z,100.29
2023-03-21T20:16:43.917Z,96.76
2023-03-21T20:19:49.866Z,98.12
2023-03-21T20:23:06.835Z,99.14
2023-03-21T20:26:25.025Z,99.89
2023-03-21T20:33:09.447Z,117.03
2023-03-21T20:39:42.745Z,99.59
2023-03-21T20:42:51.376Z,103.47
2023-03-21T20:46:08.757Z,107.01
2023-03-21T20:49:23.222Z,107.48
2023-03-21T20:53:04.582Z,112.01
2023-03-21T20:56:02.892Z,111.20
2023-03-21T20:59:18.785Z,108.59
2023-03-21T21:02:34.441Z,117.04
2023-03-21T21:05:40.354Z,131.22
2023-03-21T21:08:51.611Z,143.14
2023-03-21T21:12:14.017Z,142.10
2023-03-21T21:15:21.370Z,142.15
2023-03-21T21:18:30.580Z,147.67
2023-03-21T21:21:37.727Z,144.25
2023-03-21T21:24:45.284Z,131.54
2023-03-21T21:27:52.006Z,125.87
2023-03-21T21:31:12.022Z,116.18
2023-03-21T21:34:22.016Z,117.85
2023-03-21T21:37:28.336Z,120.07
2023-03-21T21:40:35.215Z,122.82
2023-03-21T21:43:41.085Z,114.76
2023-03-21T21:46:48.040Z,113.39
2023-03-21T21:49:56.652Z,116.48
2023-03-21T21:53:04.049Z,120.84
2023-03-21T21:56:12.250Z,131.85
2023-03-21T21:59:22.390Z,156.48
2023-03-21T22:02:28.281Z,165.57
2023-03-21T22:05:37.793Z,162.53
2023-03-21T22:08:47.464Z,156.91
2023-03-21T22:11:55.600Z,140.92
2023-03-21T22:15:01.642Z,143.13
2023-03-21T22:18:08.717Z,153.24
2023-03-21T22:21:17.478Z,141.31
2023-03-21T22:24:24.188Z,109.40
2023-03-21T22:27:33.175Z,121.46
2023-03-21T22:30:40.205Z,124.72
2023-03-21T22:33:46.393Z,130.66
2023-03-21T22:36:57.594Z,125.66
2023-03-21T22:40:12.649Z,115.53
2023-03-21T22:43:20.682Z,93.37
2023-03-21T22:46:26.725Z,84.68
2023-03-21T22:49:34.806Z,94.16
2023-03-21T22:52:44.809Z,104.74
2023-03-21T22:55:51.531Z,110.95
2023-03-21T22:59:00.722Z,119.11
2023-03-21T23:02:07.949Z,118.38
2023-03-21T23:05:14.527Z,113.58
2023-03-21T23:08:23.879Z,106.21
2023-03-21T23:11:30.639Z,100.89
2023-03-21T23:14:37.386Z,97.93
2023-03-21T23:17:44.333Z,102.88
2023-03-21T23:20:53.791Z,112.10
2023-03-21T23:24:05.678Z,112.61
2023-03-21T23:27:14.432Z,107.01
2023-03-21T23:30:20.892Z,106.16
2023-03-21T23:33:30.799Z,104.27
2023-03-21T23:36:44.667Z,99.65
2023-03-21T23:39:55.666Z,96.11
2023-03-21T23:43:04.907Z,96.27
2023-03-21T23:46:13.127Z,94.50
2023-03-21T23:49:19.158Z,94.13
2023-03-21T23:52:25.885Z,93.92
2023-03-21T23:55:34.833Z,93.56
2023-03-21T23:58:41.769Z,96.93
